sensor_id;sensor_type;location;lat;lon;timestamp;P1;durP1;ratioP1;P2;durP2;ratioP2
59846;SDS011;45728;48.788;2.302;2024-02-26T00:00:04;11.43;;;6.13;;
59846;SDS011;45728;48.788;2.302;2024-02-26T00:02:35;8.13;;;5.95;;
59846;SDS011;45728;48.788;2.302;2024-02-26T00:05:06;7.43;;;5.28;;
59846;SDS011;45728;48.788;2.302;2024-02-26T00:07:33;10.73;;;6.18;;
59846;SDS011;45728;48.788;2.302;2024-02-26T00:09:59;9.65;;;6.38;;
59846;SDS011;45728;48.788;2.302;2024-02-26T00:12:25;9.07;;;5.97;;
59846;SDS011;45728;48.788;2.302;2024-02-26T00:14:51;7.43;;;5.55;;
59846;SDS011;45728;48.788;2.302;2024-02-26T00:17:19;8.02;;;5.53;;
59846;SDS011;45728;48.788;2.302;2024-02-26T00:19:45;8.45;;;5.32;;
59846;SDS011;45728;48.788;2.302;2024-02-26T00:22:11;7.20;;;5.80;;
59846;SDS011;45728;48.788;2.302;2024-02-26T00:24:37;9.32;;;5.60;;
59846;SDS011;45728;48.788;2.302;2024-02-26T00:27:05;11.48;;;5.57;;
59846;SDS011;45728;48.788;2.302;2024-02-26T00:29:31;8.15;;;5.78;;
59846;SDS011;45728;48.788;2.302;2024-02-26T00:31:57;12.27;;;6.05;;
59846;SDS011;45728;48.788;2.302;2024-02-26T00:34:24;9.57;;;5.55;;
59846;SDS011;45728;48.788;2.302;2024-02-26T00:36:50;11.63;;;4.75;;
59846;SDS011;45728;48.788;2.302;2024-02-26T00:39:16;9.13;;;5.32;;
59846;SDS011;45728;48.788;2.302;2024-02-26T00:41:42;8.15;;;4.47;;
59846;SDS011;45728;48.788;2.302;2024-02-26T00:44:08;7.22;;;3.88;;
59846;SDS011;45728;48.788;2.302;2024-02-26T00:46:34;8.93;;;4.00;;
59846;SDS011;45728;48.788;2.302;2024-02-26T00:49:00;9.73;;;4.80;;
59846;SDS011;45728;48.788;2.302;2024-02-26T00:51:27;6.40;;;3.72;;
59846;SDS011;45728;48.788;2.302;2024-02-26T00:53:53;12.23;;;4.13;;
59846;SDS011;45728;48.788;2.302;2024-02-26T00:56:21;7.72;;;4.10;;
59846;SDS011;45728;48.788;2.302;2024-02-26T00:58:47;8.02;;;3.60;;
59846;SDS011;45728;48.788;2.302;2024-02-26T01:01:13;7.63;;;3.78;;
59846;SDS011;45728;48.788;2.302;2024-02-26T01:03:39;8.80;;;3.65;;
59846;SDS011;45728;48.788;2.302;2024-02-26T01:06:05;9.43;;;3.88;;
59846;SDS011;45728;48.788;2.302;2024-02-26T01:08:31;9.52;;;3.95;;
59846;SDS011;45728;48.788;2.302;2024-02-26T01:10:57;6.78;;;3.40;;
59846;SDS011;45728;48.788;2.302;2024-02-26T01:13:23;7.20;;;3.15;;
59846;SDS011;45728;48.788;2.302;2024-02-26T01:15:49;8.65;;;3.22;;
59846;SDS011;45728;48.788;2.302;2024-02-26T01:18:15;6.95;;;3.10;;
59846;SDS011;45728;48.788;2.302;2024-02-26T01:20:42;8.68;;;3.45;;
59846;SDS011;45728;48.788;2.302;2024-02-26T01:23:08;9.52;;;4.05;;
59846;SDS011;45728;48.788;2.302;2024-02-26T01:25:34;8.45;;;3.83;;
59846;SDS011;45728;48.788;2.302;2024-02-26T01:28:00;11.40;;;3.72;;
59846;SDS011;45728;48.788;2.302;2024-02-26T01:30:26;7.30;;;3.95;;
59846;SDS011;45728;48.788;2.302;2024-02-26T01:32:52;5.72;;;3.47;;
59846;SDS011;45728;48.788;2.302;2024-02-26T01:35:18;8.15;;;3.55;;
59846;SDS011;45728;48.788;2.302;2024-02-26T01:37:45;13.10;;;4.30;;
59846;SDS011;45728;48.788;2.302;2024-02-26T01:40:11;11.75;;;3.78;;
59846;SDS011;45728;48.788;2.302;2024-02-26T01:42:38;10.95;;;3.72;;
59846;SDS011;45728;48.788;2.302;2024-02-26T01:45:04;12.48;;;4.45;;
59846;SDS011;45728;48.788;2.302;2024-02-26T01:47:32;13.43;;;3.75;;
59846;SDS011;45728;48.788;2.302;2024-02-26T01:49:59;9.55;;;3.53;;
59846;SDS011;45728;48.788;2.302;2024-02-26T01:52:25;10.82;;;3.70;;
59846;SDS011;45728;48.788;2.302;2024-02-26T01:54:51;14.60;;;4.28;;
59846;SDS011;45728;48.788;2.302;2024-02-26T01:57:17;11.25;;;3.50;;
59846;SDS011;45728;48.788;2.302;2024-02-26T01:59:43;12.50;;;4.13;;
59846;SDS011;45728;48.788;2.302;2024-02-26T02:02:10;10.93;;;3.40;;
59846;SDS011;45728;48.788;2.302;2024-02-26T02:04:38;16.67;;;3.80;;
59846;SDS011;45728;48.788;2.302;2024-02-26T02:07:04;18.92;;;4.05;;
59846;SDS011;45728;48.788;2.302;2024-02-26T02:09:31;13.55;;;3.88;;
59846;SDS011;45728;48.788;2.302;2024-02-26T02:11:57;14.65;;;3.60;;
59846;SDS011;45728;48.788;2.302;2024-02-26T02:14:24;16.35;;;4.78;;
59846;SDS011;45728;48.788;2.302;2024-02-26T02:16:51;12.45;;;4.00;;
59846;SDS011;45728;48.788;2.302;2024-02-26T02:19:17;15.85;;;4.03;;
59846;SDS011;45728;48.788;2.302;2024-02-26T02:21:43;11.27;;;3.50;;
59846;SDS011;45728;48.788;2.302;2024-02-26T02:24:09;12.45;;;3.92;;
59846;SDS011;45728;48.788;2.302;2024-02-26T02:26:35;17.48;;;4.47;;
59846;SDS011;45728;48.788;2.302;2024-02-26T02:29:01;13.45;;;3.60;;
59846;SDS011;45728;48.788;2.302;2024-02-26T02:31:28;16.10;;;4.43;;
59846;SDS011;45728;48.788;2.302;2024-02-26T02:33:54;12.40;;;3.63;;
59846;SDS011;45728;48.788;2.302;2024-02-26T02:36:49;15.63;;;3.90;;
59846;SDS011;45728;48.788;2.302;2024-02-26T02:39:19;15.25;;;4.10;;
59846;SDS011;45728;48.788;2.302;2024-02-26T02:41:45;14.57;;;3.80;;
59846;SDS011;45728;48.788;2.302;2024-02-26T02:44:11;10.70;;;3.15;;
59846;SDS011;45728;48.788;2.302;2024-02-26T02:46:37;17.50;;;4.18;;
59846;SDS011;45728;48.788;2.302;2024-02-26T02:49:03;16.80;;;4.15;;
59846;SDS011;45728;48.788;2.302;2024-02-26T02:51:33;17.40;;;4.50;;
59846;SDS011;45728;48.788;2.302;2024-02-26T02:53:59;16.33;;;4.63;;
59846;SDS011;45728;48.788;2.302;2024-02-26T02:56:25;13.75;;;4.18;;
59846;SDS011;45728;48.788;2.302;2024-02-26T02:58:51;16.95;;;4.03;;
59846;SDS011;45728;48.788;2.302;2024-02-26T03:01:17;14.90;;;4.38;;
59846;SDS011;45728;48.788;2.302;2024-02-26T03:03:43;17.75;;;4.15;;
59846;SDS011;45728;48.788;2.302;2024-02-26T03:06:09;18.05;;;3.97;;
59846;SDS011;45728;48.788;2.302;2024-02-26T03:08:35;18.13;;;4.78;;
59846;SDS011;45728;48.788;2.302;2024-02-26T03:11:03;13.23;;;3.83;;
59846;SDS011;45728;48.788;2.302;2024-02-26T03:13:30;17.02;;;4.05;;
59846;SDS011;45728;48.788;2.302;2024-02-26T03:15:56;17.27;;;4.53;;
59846;SDS011;45728;48.788;2.302;2024-02-26T03:18:22;14.30;;;4.55;;
59846;SDS011;45728;48.788;2.302;2024-02-26T03:20:49;15.30;;;4.07;;
59846;SDS011;45728;48.788;2.302;2024-02-26T03:23:15;13.70;;;3.70;;
59846;SDS011;45728;48.788;2.302;2024-02-26T03:25:43;16.05;;;4.53;;
59846;SDS011;45728;48.788;2.302;2024-02-26T03:28:11;16.30;;;4.20;;
59846;SDS011;45728;48.788;2.302;2024-02-26T03:30:38;19.65;;;4.55;;
59846;SDS011;45728;48.788;2.302;2024-02-26T03:33:04;19.35;;;4.30;;
59846;SDS011;45728;48.788;2.302;2024-02-26T03:35:30;16.58;;;4.32;;
59846;SDS011;45728;48.788;2.302;2024-02-26T03:37:56;18.27;;;4.10;;
59846;SDS011;45728;48.788;2.302;2024-02-26T03:40:22;15.82;;;4.38;;
59846;SDS011;45728;48.788;2.302;2024-02-26T03:42:48;13.52;;;3.63;;
59846;SDS011;45728;48.788;2.302;2024-02-26T03:45:14;16.08;;;3.95;;
59846;SDS011;45728;48.788;2.302;2024-02-26T03:47:40;12.15;;;3.28;;
59846;SDS011;45728;48.788;2.302;2024-02-26T03:50:06;11.77;;;3.55;;
59846;SDS011;45728;48.788;2.302;2024-02-26T03:52:33;12.07;;;3.50;;
59846;SDS011;45728;48.788;2.302;2024-02-26T03:54:59;19.42;;;3.55;;
59846;SDS011;45728;48.788;2.302;2024-02-26T03:57:25;14.63;;;3.85;;
59846;SDS011;45728;48.788;2.302;2024-02-26T03:59:51;12.50;;;3.35;;
59846;SDS011;45728;48.788;2.302;2024-02-26T04:02:17;16.52;;;3.83;;
59846;SDS011;45728;48.788;2.302;2024-02-26T04:04:45;16.15;;;3.65;;
59846;SDS011;45728;48.788;2.302;2024-02-26T04:07:12;17.33;;;4.15;;
59846;SDS011;45728;48.788;2.302;2024-02-26T04:09:38;13.82;;;3.83;;
59846;SDS011;45728;48.788;2.302;2024-02-26T04:12:05;15.50;;;3.63;;
59846;SDS011;45728;48.788;2.302;2024-02-26T04:14:31;11.73;;;3.60;;
59846;SDS011;45728;48.788;2.302;2024-02-26T04:16:57;10.98;;;3.22;;
59846;SDS011;45728;48.788;2.302;2024-02-26T04:19:23;13.88;;;3.55;;
59846;SDS011;45728;48.788;2.302;2024-02-26T04:21:49;16.67;;;3.85;;
59846;SDS011;45728;48.788;2.302;2024-02-26T04:24:15;18.27;;;4.05;;
59846;SDS011;45728;48.788;2.302;2024-02-26T04:26:41;11.05;;;3.60;;
59846;SDS011;45728;48.788;2.302;2024-02-26T04:29:07;13.02;;;3.20;;
59846;SDS011;45728;48.788;2.302;2024-02-26T04:31:33;13.43;;;3.50;;
59846;SDS011;45728;48.788;2.302;2024-02-26T04:33:59;10.70;;;3.58;;
59846;SDS011;45728;48.788;2.302;2024-02-26T04:36:25;16.13;;;3.63;;
59846;SDS011;45728;48.788;2.302;2024-02-26T04:38:51;14.52;;;3.60;;
59846;SDS011;45728;48.788;2.302;2024-02-26T04:41:20;14.65;;;3.60;;
59846;SDS011;45728;48.788;2.302;2024-02-26T04:43:46;12.48;;;3.22;;
59846;SDS011;45728;48.788;2.302;2024-02-26T04:46:12;12.50;;;3.60;;
59846;SDS011;45728;48.788;2.302;2024-02-26T04:48:38;14.85;;;3.58;;
59846;SDS011;45728;48.788;2.302;2024-02-26T04:51:04;14.05;;;3.53;;
59846;SDS011;45728;48.788;2.302;2024-02-26T04:53:30;15.40;;;4.20;;
59846;SDS011;45728;48.788;2.302;2024-02-26T04:55:56;16.63;;;4.30;;
59846;SDS011;45728;48.788;2.302;2024-02-26T04:58:23;14.48;;;4.15;;
59846;SDS011;45728;48.788;2.302;2024-02-26T05:00:49;18.92;;;3.72;;
59846;SDS011;45728;48.788;2.302;2024-02-26T05:03:15;12.50;;;3.42;;
59846;SDS011;45728;48.788;2.302;2024-02-26T05:05:42;14.38;;;3.40;;
59846;SDS011;45728;48.788;2.302;2024-02-26T05:08:09;18.55;;;4.40;;
59846;SDS011;45728;48.788;2.302;2024-02-26T05:10:35;16.52;;;4.22;;
59846;SDS011;45728;48.788;2.302;2024-02-26T05:13:05;13.00;;;3.50;;
59846;SDS011;45728;48.788;2.302;2024-02-26T05:15:31;13.68;;;3.30;;
59846;SDS011;45728;48.788;2.302;2024-02-26T05:17:57;17.30;;;4.00;;
59846;SDS011;45728;48.788;2.302;2024-02-26T05:20:24;13.98;;;4.03;;
59846;SDS011;45728;48.788;2.302;2024-02-26T05:22:50;16.60;;;4.32;;
59846;SDS011;45728;48.788;2.302;2024-02-26T05:25:17;12.70;;;3.92;;
59846;SDS011;45728;48.788;2.302;2024-02-26T05:27:43;18.13;;;4.03;;
59846;SDS011;45728;48.788;2.302;2024-02-26T05:30:10;19.10;;;4.28;;
59846;SDS011;45728;48.788;2.302;2024-02-26T05:32:37;12.48;;;3.67;;
59846;SDS011;45728;48.788;2.302;2024-02-26T05:35:03;19.50;;;5.00;;
59846;SDS011;45728;48.788;2.302;2024-02-26T05:37:30;15.02;;;4.15;;
59846;SDS011;45728;48.788;2.302;2024-02-26T05:39:56;16.92;;;4.25;;
59846;SDS011;45728;48.788;2.302;2024-02-26T05:42:22;14.15;;;4.13;;
59846;SDS011;45728;48.788;2.302;2024-02-26T05:44:48;18.00;;;4.80;;
59846;SDS011;45728;48.788;2.302;2024-02-26T05:47:14;17.08;;;4.05;;
59846;SDS011;45728;48.788;2.302;2024-02-26T05:49:40;13.68;;;4.13;;
59846;SDS011;45728;48.788;2.302;2024-02-26T05:52:06;17.20;;;4.75;;
59846;SDS011;45728;48.788;2.302;2024-02-26T05:54:32;17.98;;;4.55;;
59846;SDS011;45728;48.788;2.302;2024-02-26T05:56:58;18.48;;;4.72;;
59846;SDS011;45728;48.788;2.302;2024-02-26T05:59:24;13.45;;;4.22;;
59846;SDS011;45728;48.788;2.302;2024-02-26T06:01:50;14.32;;;4.40;;
59846;SDS011;45728;48.788;2.302;2024-02-26T06:04:16;14.82;;;4.55;;
59846;SDS011;45728;48.788;2.302;2024-02-26T06:06:46;18.05;;;4.68;;
59846;SDS011;45728;48.788;2.302;2024-02-26T06:09:12;17.17;;;4.22;;
59846;SDS011;45728;48.788;2.302;2024-02-26T06:11:38;17.85;;;4.05;;
59846;SDS011;45728;48.788;2.302;2024-02-26T06:14:04;16.63;;;4.30;;
59846;SDS011;45728;48.788;2.302;2024-02-26T06:16:30;17.13;;;4.57;;
59846;SDS011;45728;48.788;2.302;2024-02-26T06:18:57;12.32;;;4.55;;
59846;SDS011;45728;48.788;2.302;2024-02-26T06:21:23;17.20;;;4.68;;
59846;SDS011;45728;48.788;2.302;2024-02-26T06:23:49;12.55;;;4.25;;
59846;SDS011;45728;48.788;2.302;2024-02-26T06:26:16;13.93;;;4.18;;
59846;SDS011;45728;48.788;2.302;2024-02-26T06:28:42;16.52;;;5.00;;
59846;SDS011;45728;48.788;2.302;2024-02-26T06:31:08;16.75;;;4.88;;
59846;SDS011;45728;48.788;2.302;2024-02-26T06:33:34;17.17;;;5.30;;
59846;SDS011;45728;48.788;2.302;2024-02-26T06:36:00;21.88;;;5.53;;
59846;SDS011;45728;48.788;2.302;2024-02-26T06:38:26;13.40;;;5.13;;
59846;SDS011;45728;48.788;2.302;2024-02-26T06:40:52;14.18;;;5.00;;
59846;SDS011;45728;48.788;2.302;2024-02-26T06:43:18;20.75;;;5.90;;
59846;SDS011;45728;48.788;2.302;2024-02-26T06:45:44;11.82;;;5.35;;
59846;SDS011;45728;48.788;2.302;2024-02-26T06:48:10;22.30;;;8.23;;
59846;SDS011;45728;48.788;2.302;2024-02-26T06:50:37;19.95;;;8.35;;
59846;SDS011;45728;48.788;2.302;2024-02-26T06:53:03;17.02;;;7.82;;
59846;SDS011;45728;48.788;2.302;2024-02-26T06:55:29;21.17;;;8.90;;
59846;SDS011;45728;48.788;2.302;2024-02-26T06:57:55;20.55;;;8.63;;
59846;SDS011;45728;48.788;2.302;2024-02-26T07:00:21;19.48;;;8.55;;
59846;SDS011;45728;48.788;2.302;2024-02-26T07:02:47;19.00;;;8.15;;
59846;SDS011;45728;48.788;2.302;2024-02-26T07:05:13;18.20;;;7.68;;
59846;SDS011;45728;48.788;2.302;2024-02-26T07:07:39;17.65;;;7.50;;
59846;SDS011;45728;48.788;2.302;2024-02-26T07:10:06;23.13;;;7.95;;
59846;SDS011;45728;48.788;2.302;2024-02-26T07:12:32;26.42;;;8.52;;
59846;SDS011;45728;48.788;2.302;2024-02-26T07:14:58;25.05;;;8.50;;
59846;SDS011;45728;48.788;2.302;2024-02-26T07:17:24;17.05;;;7.82;;
59846;SDS011;45728;48.788;2.302;2024-02-26T07:19:50;20.02;;;8.43;;
59846;SDS011;45728;48.788;2.302;2024-02-26T07:22:16;18.33;;;7.53;;
59846;SDS011;45728;48.788;2.302;2024-02-26T07:24:43;18.95;;;9.25;;
59846;SDS011;45728;48.788;2.302;2024-02-26T07:27:09;19.95;;;8.43;;
59846;SDS011;45728;48.788;2.302;2024-02-26T07:29:35;17.40;;;7.75;;
59846;SDS011;45728;48.788;2.302;2024-02-26T07:32:01;18.70;;;7.88;;
59846;SDS011;45728;48.788;2.302;2024-02-26T07:34:27;20.60;;;7.30;;
59846;SDS011;45728;48.788;2.302;2024-02-26T07:36:55;18.23;;;6.90;;
59846;SDS011;45728;48.788;2.302;2024-02-26T07:39:22;14.90;;;5.60;;
59846;SDS011;45728;48.788;2.302;2024-02-26T07:41:48;18.58;;;6.35;;
59846;SDS011;45728;48.788;2.302;2024-02-26T07:44:17;15.32;;;5.68;;
59846;SDS011;45728;48.788;2.302;2024-02-26T07:46:43;16.02;;;6.35;;
59846;SDS011;45728;48.788;2.302;2024-02-26T07:49:09;16.00;;;5.75;;
59846;SDS011;45728;48.788;2.302;2024-02-26T07:51:35;18.20;;;5.88;;
59846;SDS011;45728;48.788;2.302;2024-02-26T07:54:01;17.48;;;5.70;;
59846;SDS011;45728;48.788;2.302;2024-02-26T07:56:28;15.55;;;5.20;;
59846;SDS011;45728;48.788;2.302;2024-02-26T07:58:54;18.88;;;5.78;;
59846;SDS011;45728;48.788;2.302;2024-02-26T08:01:20;16.08;;;5.25;;
59846;SDS011;45728;48.788;2.302;2024-02-26T08:03:46;17.85;;;5.32;;
59846;SDS011;45728;48.788;2.302;2024-02-26T08:06:12;14.07;;;5.47;;
59846;SDS011;45728;48.788;2.302;2024-02-26T08:08:38;14.40;;;5.22;;
59846;SDS011;45728;48.788;2.302;2024-02-26T08:11:04;16.13;;;5.07;;
59846;SDS011;45728;48.788;2.302;2024-02-26T08:13:30;11.32;;;5.03;;
59846;SDS011;45728;48.788;2.302;2024-02-26T08:15:56;13.70;;;5.10;;
59846;SDS011;45728;48.788;2.302;2024-02-26T08:18:22;10.77;;;5.13;;
59846;SDS011;45728;48.788;2.302;2024-02-26T08:20:48;13.00;;;5.05;;
59846;SDS011;45728;48.788;2.302;2024-02-26T08:23:14;16.10;;;4.75;;
59846;SDS011;45728;48.788;2.302;2024-02-26T08:25:40;11.57;;;5.32;;
59846;SDS011;45728;48.788;2.302;2024-02-26T08:28:06;14.07;;;5.20;;
59846;SDS011;45728;48.788;2.302;2024-02-26T08:30:32;10.18;;;5.35;;
59846;SDS011;45728;48.788;2.302;2024-02-26T08:32:59;13.48;;;5.53;;
59846;SDS011;45728;48.788;2.302;2024-02-26T08:35:25;13.20;;;5.18;;
59846;SDS011;45728;48.788;2.302;2024-02-26T08:37:51;11.98;;;5.20;;
59846;SDS011;45728;48.788;2.302;2024-02-26T08:40:17;10.80;;;5.72;;
59846;SDS011;45728;48.788;2.302;2024-02-26T08:42:45;13.77;;;6.32;;
59846;SDS011;45728;48.788;2.302;2024-02-26T08:45:11;12.73;;;6.30;;
59846;SDS011;45728;48.788;2.302;2024-02-26T08:47:38;15.60;;;7.25;;
59846;SDS011;45728;48.788;2.302;2024-02-26T08:50:04;16.40;;;8.02;;
59846;SDS011;45728;48.788;2.302;2024-02-26T08:52:31;16.23;;;7.47;;
59846;SDS011;45728;48.788;2.302;2024-02-26T08:54:57;12.00;;;7.03;;
59846;SDS011;45728;48.788;2.302;2024-02-26T08:57:23;12.43;;;6.97;;
59846;SDS011;45728;48.788;2.302;2024-02-26T08:59:52;14.20;;;7.70;;
59846;SDS011;45728;48.788;2.302;2024-02-26T09:02:18;18.65;;;7.07;;
59846;SDS011;45728;48.788;2.302;2024-02-26T09:04:45;17.90;;;7.80;;
59846;SDS011;45728;48.788;2.302;2024-02-26T09:07:11;17.15;;;7.40;;
59846;SDS011;45728;48.788;2.302;2024-02-26T09:09:37;16.50;;;6.97;;
59846;SDS011;45728;48.788;2.302;2024-02-26T09:12:03;12.63;;;6.53;;
59846;SDS011;45728;48.788;2.302;2024-02-26T09:14:29;14.73;;;7.13;;
59846;SDS011;45728;48.788;2.302;2024-02-26T09:16:55;15.07;;;6.90;;
59846;SDS011;45728;48.788;2.302;2024-02-26T09:19:22;17.67;;;6.65;;
59846;SDS011;45728;48.788;2.302;2024-02-26T09:21:49;18.15;;;6.53;;
59846;SDS011;45728;48.788;2.302;2024-02-26T09:24:15;17.48;;;7.50;;
59846;SDS011;45728;48.788;2.302;2024-02-26T09:26:41;13.70;;;6.65;;
59846;SDS011;45728;48.788;2.302;2024-02-26T09:29:07;14.30;;;6.68;;
59846;SDS011;45728;48.788;2.302;2024-02-26T09:31:33;12.93;;;6.25;;
59846;SDS011;45728;48.788;2.302;2024-02-26T09:34:00;14.45;;;6.97;;
59846;SDS011;45728;48.788;2.302;2024-02-26T09:36:26;11.93;;;6.35;;
59846;SDS011;45728;48.788;2.302;2024-02-26T09:38:52;14.38;;;6.53;;
59846;SDS011;45728;48.788;2.302;2024-02-26T09:41:18;12.80;;;6.13;;
59846;SDS011;45728;48.788;2.302;2024-02-26T09:43:44;10.10;;;5.43;;
59846;SDS011;45728;48.788;2.302;2024-02-26T09:46:13;11.75;;;5.55;;
59846;SDS011;45728;48.788;2.302;2024-02-26T09:48:42;12.68;;;5.53;;
59846;SDS011;45728;48.788;2.302;2024-02-26T09:51:10;9.43;;;4.85;;
59846;SDS011;45728;48.788;2.302;2024-02-26T09:53:37;10.60;;;4.82;;
59846;SDS011;45728;48.788;2.302;2024-02-26T09:56:08;12.18;;;5.03;;
59846;SDS011;45728;48.788;2.302;2024-02-26T09:58:35;12.15;;;4.90;;
59846;SDS011;45728;48.788;2.302;2024-02-26T10:01:03;10.60;;;5.40;;
59846;SDS011;45728;48.788;2.302;2024-02-26T10:03:42;11.68;;;4.85;;
59846;SDS011;45728;48.788;2.302;2024-02-26T10:06:10;11.00;;;4.88;;
59846;SDS011;45728;48.788;2.302;2024-02-26T10:08:37;13.55;;;4.70;;
59846;SDS011;45728;48.788;2.302;2024-02-26T10:11:04;10.48;;;4.78;;
59846;SDS011;45728;48.788;2.302;2024-02-26T10:13:34;9.77;;;4.10;;
59846;SDS011;45728;48.788;2.302;2024-02-26T10:16:02;9.52;;;4.10;;
59846;SDS011;45728;48.788;2.302;2024-02-26T10:18:44;9.85;;;4.28;;
59846;SDS011;45728;48.788;2.302;2024-02-26T10:21:20;8.82;;;4.07;;
59846;SDS011;45728;48.788;2.302;2024-02-26T10:23:47;10.25;;;3.88;;
59846;SDS011;45728;48.788;2.302;2024-02-26T10:26:14;10.98;;;4.05;;
59846;SDS011;45728;48.788;2.302;2024-02-26T10:28:41;11.93;;;3.53;;
59846;SDS011;45728;48.788;2.302;2024-02-26T10:31:09;7.63;;;3.47;;
59846;SDS011;45728;48.788;2.302;2024-02-26T10:33:36;9.45;;;3.88;;
59846;SDS011;45728;48.788;2.302;2024-02-26T10:36:06;8.20;;;4.13;;
59846;SDS011;45728;48.788;2.302;2024-02-26T10:38:33;8.10;;;4.30;;
59846;SDS011;45728;48.788;2.302;2024-02-26T10:41:04;8.32;;;4.18;;
59846;SDS011;45728;48.788;2.302;2024-02-26T10:43:38;9.63;;;3.80;;
59846;SDS011;45728;48.788;2.302;2024-02-26T10:46:04;12.05;;;4.15;;
59846;SDS011;45728;48.788;2.302;2024-02-26T10:48:30;8.73;;;3.53;;
59846;SDS011;45728;48.788;2.302;2024-02-26T10:50:56;7.95;;;3.72;;
59846;SDS011;45728;48.788;2.302;2024-02-26T10:53:23;7.55;;;3.97;;
59846;SDS011;45728;48.788;2.302;2024-02-26T10:55:58;10.80;;;4.25;;
59846;SDS011;45728;48.788;2.302;2024-02-26T10:58:26;6.78;;;3.10;;
59846;SDS011;45728;48.788;2.302;2024-02-26T11:00:54;5.88;;;2.15;;
59846;SDS011;45728;48.788;2.302;2024-02-26T11:03:23;5.25;;;2.47;;
59846;SDS011;45728;48.788;2.302;2024-02-26T11:05:50;7.07;;;2.10;;
59846;SDS011;45728;48.788;2.302;2024-02-26T11:08:20;3.50;;;1.95;;
59846;SDS011;45728;48.788;2.302;2024-02-26T11:10:47;7.65;;;2.05;;
59846;SDS011;45728;48.788;2.302;2024-02-26T11:13:17;6.38;;;2.15;;
59846;SDS011;45728;48.788;2.302;2024-02-26T11:15:44;5.10;;;1.73;;
59846;SDS011;45728;48.788;2.302;2024-02-26T11:18:16;30.42;;;25.15;;
59846;SDS011;45728;48.788;2.302;2024-02-26T11:20:44;8.45;;;3.30;;
59846;SDS011;45728;48.788;2.302;2024-02-26T11:23:11;3.97;;;2.17;;
59846;SDS011;45728;48.788;2.302;2024-02-26T11:25:37;6.85;;;2.03;;
59846;SDS011;45728;48.788;2.302;2024-02-26T11:28:12;3.75;;;1.80;;
59846;SDS011;45728;48.788;2.302;2024-02-26T11:30:43;4.65;;;2.00;;
59846;SDS011;45728;48.788;2.302;2024-02-26T11:33:12;3.35;;;1.90;;
59846;SDS011;45728;48.788;2.302;2024-02-26T11:35:39;6.85;;;2.10;;
59846;SDS011;45728;48.788;2.302;2024-02-26T11:38:06;3.17;;;2.20;;
59846;SDS011;45728;48.788;2.302;2024-02-26T11:40:33;7.10;;;2.20;;
59846;SDS011;45728;48.788;2.302;2024-02-26T11:43:05;5.82;;;2.20;;
59846;SDS011;45728;48.788;2.302;2024-02-26T11:50:41;4.30;;;2.17;;
59846;SDS011;45728;48.788;2.302;2024-02-26T11:53:21;4.28;;;2.20;;
59846;SDS011;45728;48.788;2.302;2024-02-26T11:58:43;3.22;;;2.75;;
59846;SDS011;45728;48.788;2.302;2024-02-26T12:04:12;3.53;;;3.20;;
59846;SDS011;45728;48.788;2.302;2024-02-26T12:06:47;3.63;;;3.23;;
59846;SDS011;45728;48.788;2.302;2024-02-26T12:09:35;3.95;;;3.55;;
59846;SDS011;45728;48.788;2.302;2024-02-26T12:12:06;3.45;;;3.05;;
59846;SDS011;45728;48.788;2.302;2024-02-26T12:14:55;3.55;;;2.63;;
59846;SDS011;45728;48.788;2.302;2024-02-26T12:17:22;4.60;;;3.13;;
59846;SDS011;45728;48.788;2.302;2024-02-26T12:19:49;5.65;;;3.30;;
59846;SDS011;45728;48.788;2.302;2024-02-26T12:22:17;3.47;;;2.90;;
59846;SDS011;45728;48.788;2.302;2024-02-26T12:24:43;4.95;;;3.30;;
59846;SDS011;45728;48.788;2.302;2024-02-26T12:27:09;3.33;;;3.03;;
59846;SDS011;45728;48.788;2.302;2024-02-26T12:29:35;3.45;;;3.17;;
59846;SDS011;45728;48.788;2.302;2024-02-26T12:32:01;3.88;;;3.33;;
59846;SDS011;45728;48.788;2.302;2024-02-26T12:34:30;4.22;;;3.72;;
59846;SDS011;45728;48.788;2.302;2024-02-26T12:36:56;5.68;;;4.38;;
59846;SDS011;45728;48.788;2.302;2024-02-26T12:39:23;5.30;;;4.20;;
59846;SDS011;45728;48.788;2.302;2024-02-26T12:41:50;4.68;;;4.18;;
59846;SDS011;45728;48.788;2.302;2024-02-26T12:44:16;4.78;;;3.85;;
59846;SDS011;45728;48.788;2.302;2024-02-26T12:46:42;5.63;;;4.32;;
59846;SDS011;45728;48.788;2.302;2024-02-26T12:49:08;5.43;;;4.30;;
59846;SDS011;45728;48.788;2.302;2024-02-26T12:51:41;4.78;;;4.07;;
59846;SDS011;45728;48.788;2.302;2024-02-26T12:54:07;5.15;;;4.38;;
59846;SDS011;45728;48.788;2.302;2024-02-26T12:56:34;6.50;;;5.90;;
59846;SDS011;45728;48.788;2.302;2024-02-26T12:59:01;7.82;;;6.65;;
59846;SDS011;45728;48.788;2.302;2024-02-26T13:01:28;6.38;;;5.78;;
59846;SDS011;45728;48.788;2.302;2024-02-26T13:03:55;6.57;;;5.80;;
59846;SDS011;45728;48.788;2.302;2024-02-26T13:06:22;7.43;;;6.72;;
59846;SDS011;45728;48.788;2.302;2024-02-26T13:08:48;6.53;;;6.03;;
59846;SDS011;45728;48.788;2.302;2024-02-26T13:11:15;5.13;;;4.72;;
59846;SDS011;45728;48.788;2.302;2024-02-26T13:13:41;3.85;;;3.45;;
59846;SDS011;45728;48.788;2.302;2024-02-26T13:16:09;5.30;;;4.80;;
59846;SDS011;45728;48.788;2.302;2024-02-26T13:18:39;5.10;;;4.60;;
59846;SDS011;45728;48.788;2.302;2024-02-26T13:21:14;4.72;;;3.60;;
59846;SDS011;45728;48.788;2.302;2024-02-26T13:23:43;4.47;;;2.80;;
59846;SDS011;45728;48.788;2.302;2024-02-26T13:26:13;3.05;;;2.78;;
59846;SDS011;45728;48.788;2.302;2024-02-26T13:28:40;3.90;;;3.00;;
59846;SDS011;45728;48.788;2.302;2024-02-26T13:31:06;3.63;;;3.30;;
59846;SDS011;45728;48.788;2.302;2024-02-26T13:33:33;4.40;;;4.00;;
59846;SDS011;45728;48.788;2.302;2024-02-26T13:36:00;4.15;;;3.42;;
59846;SDS011;45728;48.788;2.302;2024-02-26T13:38:27;3.15;;;2.85;;
59846;SDS011;45728;48.788;2.302;2024-02-26T13:40:54;2.70;;;2.50;;
59846;SDS011;45728;48.788;2.302;2024-02-26T13:43:20;2.70;;;2.50;;
59846;SDS011;45728;48.788;2.302;2024-02-26T13:45:47;3.67;;;2.70;;
59846;SDS011;45728;48.788;2.302;2024-02-26T13:48:13;2.88;;;2.55;;
59846;SDS011;45728;48.788;2.302;2024-02-26T13:50:40;2.83;;;2.63;;
59846;SDS011;45728;48.788;2.302;2024-02-26T13:53:08;2.80;;;2.60;;
59846;SDS011;45728;48.788;2.302;2024-02-26T13:55:35;2.75;;;2.55;;
59846;SDS011;45728;48.788;2.302;2024-02-26T13:58:01;4.15;;;2.53;;
59846;SDS011;45728;48.788;2.302;2024-02-26T14:00:28;2.40;;;2.20;;
59846;SDS011;45728;48.788;2.302;2024-02-26T14:02:57;2.80;;;2.60;;
59846;SDS011;45728;48.788;2.302;2024-02-26T14:05:24;2.78;;;2.58;;
59846;SDS011;45728;48.788;2.302;2024-02-26T14:07:50;2.95;;;2.65;;
59846;SDS011;45728;48.788;2.302;2024-02-26T14:10:16;3.42;;;2.67;;
59846;SDS011;45728;48.788;2.302;2024-02-26T14:12:42;2.15;;;1.95;;
59846;SDS011;45728;48.788;2.302;2024-02-26T14:15:09;2.17;;;2.00;;
59846;SDS011;45728;48.788;2.302;2024-02-26T14:17:35;2.10;;;1.90;;
59846;SDS011;45728;48.788;2.302;2024-02-26T14:20:02;2.28;;;2.08;;
59846;SDS011;45728;48.788;2.302;2024-02-26T14:22:29;2.53;;;1.95;;
59846;SDS011;45728;48.788;2.302;2024-02-26T14:24:59;4.50;;;2.08;;
59846;SDS011;45728;48.788;2.302;2024-02-26T14:27:25;2.40;;;2.08;;
59846;SDS011;45728;48.788;2.302;2024-02-26T14:29:51;2.10;;;1.90;;
59846;SDS011;45728;48.788;2.302;2024-02-26T14:32:17;1.85;;;1.75;;
59846;SDS011;45728;48.788;2.302;2024-02-26T14:34:43;1.92;;;1.75;;
59846;SDS011;45728;48.788;2.302;2024-02-26T14:37:09;2.00;;;1.80;;
59846;SDS011;45728;48.788;2.302;2024-02-26T14:39:35;2.03;;;1.80;;
59846;SDS011;45728;48.788;2.302;2024-02-26T14:42:04;2.08;;;1.88;;
59846;SDS011;45728;48.788;2.302;2024-02-26T14:44:30;2.05;;;1.85;;
59846;SDS011;45728;48.788;2.302;2024-02-26T14:46:57;1.73;;;1.63;;
59846;SDS011;45728;48.788;2.302;2024-02-26T14:49:23;2.40;;;1.88;;